近畿METAR電文


但馬(RJBT)
07/19 18:00
METAR RJBT 190900Z VRB01KT 9999 FEW025 SCT100 BKN/// 26/23 Q1008 RMK
1CU025 3AC100 A2979=

神戸(RJBE)
07/19 18:00
METAR RJBE 190900Z 21016KT 9999 FEW015 SCT180 BKN/// 28/26 Q1009 RMK
1CU015 3AC180 A2981=

関空(RJBB)
07/19 18:30
METAR RJBB 190930Z 19013KT 9999 FEW020 SCT090 BKN/// 30/25 Q1009
NOSIG RMK 1CU020 3AC090 A2980=

大阪(RJOO)
07/19 18:00
METAR RJOO 190900Z 24009KT 190V280 9999 FEW015 BKN/// 31/25 Q1009
RMK 1CU015 A2980=

八尾(RJOY)
07/19 18:00
METAR RJOY 190900Z 23008KT 180V270 9999 FEW025 SCT070 BKN/// 33/24
Q1009 RMK 1CU025 3AC070 A2980=

明野(RJOE)
07/19 18:00
METAR RJOE 190900Z NIL=

南紀白浜(RJBD)
07/19 18:00
METAR RJBD 190900Z 17007KT 9999 FEW004 BKN007 BKN009 28/27 Q1011 RMK
1ST004 5ST007 6ST009 A2987=
Copyright(c) 2014 International Meteorological & Oceanographic Consultants Co,.Ltd. All Rights Reserved. Design by http://f-tpl.com